Terminal Aerodrome Forecast
Issued by NWS Twin Cities, MN

Home | Current Version | Previous Version | Graphics & Text | Print | Product List | Glossary On
Versions: 1 2 3 4 5 6 7 8 9 10 11 12 13 14 15 16 17 18
942
FTUS43 KMPX 202320
TAFEAU
TAF
KEAU 202320Z 2100/2124 30008KT P6SM SCT060
     FM210100 31004KT P6SM FEW200
     FM211000 00000KT 3SM BR FEW200
     FM211300 VRB03KT P6SM FEW200
     FM211600 16009KT P6SM BKN200=

USA.gov is the U.S. government's official web portal to all federal, state and local government web resources and services.